Time;durP1;ratioP1;P1;durP2;ratioP2;P2;SDS_P1;SDS_P2;PMS_P1;PMS_P2;Temp;Humidity;BMP_temperature;BMP_pressure;BME280_temperature;BME280_humidity;BME280_pressure;Samples;Min_cycle;Max_cycle;Signal;HPM_P1;HPM_P2
2020/05/15 00:07:06;;;;;;;2.39;2.12;;;;;;;18.58;42.08;100260.54;;;;-53
2020/05/15 00:09:59;;;;;;;2.27;2.07;;;;;;;18.58;42.07;100264.38;;;;-50
2020/05/15 00:13:19;;;;;;;2.40;2.20;;;;;;;18.57;42.07;100270.97;;;;-51
2020/05/15 00:23:26;;;;;;;2.11;2.01;;;;;;;18.56;42.06;100280.34;;;;-53
2020/05/15 00:26:38;;;;;;;2.15;2.00;;;;;;;18.55;42.09;100271.88;;;;-52
2020/05/15 00:29:37;;;;;;;2.18;1.98;;;;;;;18.54;42.11;100276.18;;;;-51
2020/05/15 00:32:37;;;;;;;2.08;1.92;;;;;;;18.54;42.11;100276.34;;;;-51
2020/05/15 00:35:37;;;;;;;2.24;2.04;;;;;;;18.54;42.08;100277.34;;;;-51
2020/05/15 00:38:37;;;;;;;2.09;1.99;;;;;;;18.54;42.08;100277.52;;;;-51
2020/05/15 00:41:37;;;;;;;2.23;2.03;;;;;;;18.53;42.11;100281.38;;;;-53
2020/05/15 00:44:37;;;;;;;2.27;2.07;;;;;;;18.53;42.07;100275.96;;;;-51
2020/05/15 00:47:37;;;;;;;2.24;2.05;;;;;;;18.52;42.11;100276.42;;;;-52
2020/05/15 00:50:37;;;;;;;2.19;2.01;;;;;;;18.51;42.13;100268.79;;;;-51
2020/05/15 00:54:37;;;;;;;2.19;1.99;;;;;;;18.51;42.12;100272.59;;;;-51
2020/05/15 00:58:37;;;;;;;2.19;1.99;;;;;;;18.50;42.06;100270.59;;;;-52
2020/05/15 01:01:38;;;;;;;2.09;1.99;;;;;;;18.50;42.05;100267.30;;;;-51
2020/05/15 01:04:37;;;;;;;2.11;2.00;;;;;;;18.50;42.13;100277.84;;;;-50
2020/05/15 01:07:37;;;;;;;2.19;2.09;;;;;;;18.50;42.11;100282.35;;;;-52
2020/05/15 01:10:37;;;;;;;2.33;2.13;;;;;;;18.50;42.09;100286.53;;;;-52
2020/05/15 01:13:37;;;;;;;2.13;1.97;;;;;;;18.49;42.09;100289.39;;;;-51
2020/05/15 01:16:37;;;;;;;2.17;1.99;;;;;;;18.50;42.06;100299.68;;;;-52
2020/05/15 01:19:37;;;;;;;2.30;2.05;;;;;;;18.49;42.08;100300.86;;;;-50
2020/05/15 01:22:37;;;;;;;2.27;2.07;;;;;;;18.48;42.11;100298.81;;;;-53
2020/05/15 01:25:37;;;;;;;2.33;2.13;;;;;;;18.49;42.13;100307.22;;;;-51
2020/05/15 01:28:37;;;;;;;2.19;1.99;;;;;;;18.48;42.09;100304.34;;;;-53
2020/05/15 01:31:37;;;;;;;2.00;1.90;;;;;;;18.48;42.07;100304.44;;;;-52
2020/05/15 01:34:37;;;;;;;2.09;1.93;;;;;;;18.47;42.09;100309.98;;;;-51
2020/05/15 01:37:37;;;;;;;2.09;1.99;;;;;;;18.46;42.10;100310.03;;;;-51
2020/05/15 01:40:37;;;;;;;2.14;2.01;;;;;;;18.46;42.09;100310.59;;;;-51
2020/05/15 01:43:37;;;;;;;2.45;1.96;;;;;;;18.46;42.04;100312.87;;;;-50
2020/05/15 01:46:37;;;;;;;2.12;1.93;;;;;;;18.46;42.12;100321.46;;;;-50
2020/05/15 01:49:37;;;;;;;2.17;1.97;;;;;;;18.45;42.12;100321.34;;;;-51
2020/05/15 01:52:37;;;;;;;2.01;1.91;;;;;;;18.46;42.09;100324.64;;;;-51
2020/05/15 01:55:37;;;;;;;2.00;1.90;;;;;;;18.46;42.07;100318.45;;;;-51
2020/05/15 01:58:37;;;;;;;2.00;1.90;;;;;;;18.45;42.08;100317.84;;;;-53
2020/05/15 02:01:38;;;;;;;2.00;1.89;;;;;;;18.44;42.08;100318.20;;;;-50
2020/05/15 02:04:37;;;;;;;1.98;1.88;;;;;;;18.44;42.09;100318.03;;;;-51
2020/05/15 02:07:37;;;;;;;2.13;2.02;;;;;;;18.44;42.05;100317.29;;;;-51
2020/05/15 02:10:41;;;;;;;2.07;1.90;;;;;;;18.44;42.12;100315.35;;;;-51
2020/05/15 02:13:37;;;;;;;2.12;1.94;;;;;;;18.44;42.09;100313.18;;;;-51
2020/05/15 02:16:37;;;;;;;1.96;1.86;;;;;;;18.42;42.06;100310.85;;;;-51
2020/05/15 02:19:37;;;;;;;2.16;1.95;;;;;;;18.43;42.08;100312.41;;;;-53
2020/05/15 02:22:37;;;;;;;2.29;2.09;;;;;;;18.43;42.06;100309.45;;;;-50
2020/05/15 02:25:37;;;;;;;1.79;1.69;;;;;;;18.43;42.11;100306.77;;;;-50
2020/05/15 02:28:37;;;;;;;2.20;2.00;;;;;;;18.42;42.10;100305.33;;;;-52
2020/05/15 02:31:37;;;;;;;2.14;1.95;;;;;;;18.42;42.07;100304.89;;;;-52
2020/05/15 02:34:37;;;;;;;2.13;1.93;;;;;;;18.41;42.07;100298.77;;;;-51
2020/05/15 02:37:37;;;;;;;1.99;1.89;;;;;;;18.41;42.04;100303.84;;;;-52
2020/05/15 02:40:37;;;;;;;2.20;2.00;;;;;;;18.41;42.06;100299.66;;;;-50
2020/05/15 02:43:37;;;;;;;2.09;1.90;;;;;;;18.40;42.05;100305.23;;;;-51
2020/05/15 02:46:37;;;;;;;2.18;1.99;;;;;;;18.39;42.06;100307.12;;;;-52
2020/05/15 02:49:37;;;;;;;2.30;2.10;;;;;;;18.40;42.08;100311.83;;;;-52
2020/05/15 02:52:37;;;;;;;2.01;1.91;;;;;;;18.40;42.10;100318.78;;;;-51
2020/05/15 02:55:37;;;;;;;2.00;1.90;;;;;;;18.40;42.06;100317.00;;;;-52
2020/05/15 02:58:37;;;;;;;2.01;1.88;;;;;;;18.39;42.07;100316.89;;;;-51
2020/05/15 03:01:37;;;;;;;2.29;2.11;;;;;;;18.38;42.08;100315.73;;;;-51
2020/05/15 03:04:37;;;;;;;2.11;1.93;;;;;;;18.39;42.08;100319.46;;;;-51
2020/05/15 03:07:37;;;;;;;1.91;1.80;;;;;;;18.39;42.08;100322.08;;;;-53
2020/05/15 03:10:37;;;;;;;2.21;2.01;;;;;;;18.38;42.06;100325.21;;;;-53
2020/05/15 03:13:37;;;;;;;2.01;1.90;;;;;;;18.38;42.09;100317.68;;;;-51
2020/05/15 03:16:37;;;;;;;1.89;1.74;;;;;;;18.38;42.09;100323.47;;;;-52
2020/05/15 03:19:37;;;;;;;1.97;1.87;;;;;;;18.37;42.10;100323.59;;;;-56
2020/05/15 03:22:37;;;;;;;2.17;1.99;;;;;;;18.37;42.10;100326.43;;;;-55
2020/05/15 03:25:37;;;;;;;1.91;1.81;;;;;;;18.36;42.10;100325.11;;;;-55
2020/05/15 03:28:37;;;;;;;2.07;1.97;;;;;;;18.36;42.08;100327.18;;;;-55
2020/05/15 03:31:42;;;;;;;2.25;2.05;;;;;;;18.37;42.06;100338.77;;;;-55
2020/05/15 03:34:37;;;;;;;1.98;1.88;;;;;;;18.36;42.09;100337.08;;;;-56
2020/05/15 03:37:37;;;;;;;1.99;1.89;;;;;;;18.36;42.07;100342.00;;;;-56
2020/05/15 03:40:37;;;;;;;1.90;1.80;;;;;;;18.36;42.06;100346.11;;;;-55
2020/05/15 03:43:37;;;;;;;2.65;1.90;;;;;;;18.37;42.04;100352.47;;;;-56
2020/05/15 03:46:37;;;;;;;2.02;1.83;;;;;;;18.37;42.01;100356.02;;;;-56
2020/05/15 03:49:37;;;;;;;1.87;1.77;;;;;;;18.39;41.93;100356.69;;;;-56
2020/05/15 03:52:37;;;;;;;1.81;1.71;;;;;;;18.40;41.89;100356.30;;;;-56
2020/05/15 03:55:37;;;;;;;2.07;1.90;;;;;;;18.42;41.86;100363.91;;;;-56
2020/05/15 03:58:37;;;;;;;1.89;1.79;;;;;;;18.43;41.84;100362.46;;;;-55
2020/05/15 04:01:37;;;;;;;1.81;1.71;;;;;;;18.47;41.84;100364.92;;;;-55
2020/05/15 04:04:37;;;;;;;1.98;1.88;;;;;;;18.50;41.89;100363.79;;;;-55
2020/05/15 04:07:37;;;;;;;1.81;1.71;;;;;;;18.54;41.90;100369.39;;;;-55
2020/05/15 04:10:37;;;;;;;1.97;1.83;;;;;;;18.57;41.98;100372.94;;;;-55
2020/05/15 04:13:37;;;;;;;1.81;1.71;;;;;;;18.60;42.00;100369.11;;;;-55
2020/05/15 04:16:37;;;;;;;1.85;1.75;;;;;;;18.63;42.05;100367.75;;;;-56
2020/05/15 04:19:37;;;;;;;1.89;1.79;;;;;;;18.66;42.08;100371.30;;;;-54
2020/05/15 04:22:37;;;;;;;1.71;1.61;;;;;;;18.70;42.11;100371.91;;;;-55
2020/05/15 04:25:37;;;;;;;1.70;1.60;;;;;;;18.72;42.13;100371.84;;;;-53
2020/05/15 04:28:37;;;;;;;4.53;2.51;;;;;;;18.76;40.58;100376.77;;;;-55
2020/05/15 04:31:37;;;;;;;2.55;2.35;;;;;;;18.79;40.40;100382.17;;;;-53
2020/05/15 04:34:37;;;;;;;2.40;2.20;;;;;;;18.82;40.71;100385.75;;;;-54
2020/05/15 04:37:37;;;;;;;2.71;2.01;;;;;;;18.86;40.87;100387.00;;;;-52
2020/05/15 04:40:37;;;;;;;2.21;2.03;;;;;;;18.89;41.10;100391.99;;;;-52
2020/05/15 04:43:37;;;;;;;3.39;1.97;;;;;;;18.92;41.10;100400.66;;;;-52
2020/05/15 04:46:37;;;;;;;2.28;2.08;;;;;;;18.93;40.90;100393.91;;;;-53
2020/05/15 04:49:37;;;;;;;2.31;2.11;;;;;;;18.95;40.83;100402.65;;;;-52
2020/05/15 04:52:37;;;;;;;2.26;2.02;;;;;;;18.97;40.75;100396.61;;;;-53
2020/05/15 04:55:37;;;;;;;2.57;2.10;;;;;;;18.98;40.72;100400.67;;;;-52
2020/05/15 04:58:37;;;;;;;2.26;1.99;;;;;;;19.00;40.60;100402.04;;;;-53
2020/05/15 05:01:37;;;;;;;2.03;1.89;;;;;;;19.03;40.56;100409.93;;;;-52
2020/05/15 05:04:37;;;;;;;2.21;2.01;;;;;;;19.03;40.52;100407.02;;;;-52
2020/05/15 05:07:37;;;;;;;2.29;1.99;;;;;;;19.05;40.44;100412.53;;;;-56
2020/05/15 05:10:37;;;;;;;2.13;1.93;;;;;;;19.07;40.53;100419.32;;;;-55
2020/05/15 05:13:37;;;;;;;2.20;2.00;;;;;;;19.07;40.48;100421.00;;;;-55
2020/05/15 05:16:37;;;;;;;3.40;2.31;;;;;;;19.09;40.58;100421.76;;;;-55
2020/05/15 05:19:37;;;;;;;2.17;1.98;;;;;;;19.10;40.51;100422.14;;;;-55
2020/05/15 05:22:37;;;;;;;2.83;2.20;;;;;;;19.11;40.66;100423.46;;;;-55
2020/05/15 05:25:37;;;;;;;2.31;2.09;;;;;;;19.12;40.48;100422.12;;;;-55
2020/05/15 05:28:37;;;;;;;2.40;2.20;;;;;;;19.13;40.71;100425.52;;;;-55
2020/05/15 05:31:37;;;;;;;3.26;2.26;;;;;;;19.14;40.57;100429.68;;;;-55
2020/05/15 05:34:37;;;;;;;3.15;2.39;;;;;;;19.15;40.55;100429.05;;;;-55
2020/05/15 05:37:37;;;;;;;2.51;2.31;;;;;;;19.16;40.49;100429.27;;;;-55
2020/05/15 05:40:37;;;;;;;2.99;2.61;;;;;;;19.15;40.21;100428.53;;;;-55
2020/05/15 05:43:37;;;;;;;3.06;2.53;;;;;;;19.16;40.19;100434.39;;;;-55
2020/05/15 05:46:37;;;;;;;3.39;2.48;;;;;;;19.16;40.06;100440.97;;;;-55
2020/05/15 05:49:37;;;;;;;2.99;2.35;;;;;;;19.17;40.05;100446.43;;;;-55
2020/05/15 05:52:37;;;;;;;3.91;2.61;;;;;;;19.18;39.92;100446.48;;;;-56
2020/05/15 05:55:37;;;;;;;2.76;2.39;;;;;;;19.18;40.19;100450.63;;;;-61
2020/05/15 05:58:37;;;;;;;4.17;2.46;;;;;;;19.17;39.94;100446.87;;;;-61
2020/05/15 06:01:37;;;;;;;2.89;2.50;;;;;;;19.19;40.16;100450.61;;;;-62
2020/05/15 06:04:41;;;;;;;3.61;2.79;;;;;;;19.18;40.08;100448.32;;;;-61
2020/05/15 06:10:38;;;;;;;3.16;2.39;;;;;;;19.20;40.20;100453.50;;;;-62
2020/05/15 06:13:37;;;;;;;3.73;2.44;;;;;;;19.20;40.00;100455.45;;;;-61
2020/05/15 06:16:37;;;;;;;4.33;2.65;;;;;;;19.21;40.28;100460.67;;;;-61
2020/05/15 06:19:37;;;;;;;3.48;2.69;;;;;;;19.22;40.26;100466.48;;;;-61
2020/05/15 06:22:37;;;;;;;4.04;2.40;;;;;;;19.23;40.20;100471.48;;;;-62
2020/05/15 06:25:37;;;;;;;2.97;2.40;;;;;;;19.23;40.21;100472.16;;;;-61
2020/05/15 06:31:43;;;;;;;2.57;2.37;;;;;;;19.25;40.61;100477.27;;;;-60
2020/05/15 06:34:47;;;;;;;3.30;2.33;;;;;;;19.26;40.47;100480.67;;;;-61
2020/05/15 06:40:37;;;;;;;2.54;2.19;;;;;;;19.27;40.30;100484.39;;;;-62
2020/05/15 06:43:37;;;;;;;2.36;2.16;;;;;;;19.29;40.55;100484.37;;;;-61
2020/05/15 06:46:37;;;;;;;2.29;2.09;;;;;;;19.30;40.42;100486.94;;;;-62
2020/05/15 06:49:37;;;;;;;2.45;2.25;;;;;;;19.31;40.50;100484.13;;;;-62
2020/05/15 06:52:37;;;;;;;2.43;2.22;;;;;;;19.32;40.62;100486.69;;;;-62
2020/05/15 06:55:37;;;;;;;2.42;2.22;;;;;;;19.33;40.40;100488.58;;;;-61
2020/05/15 06:58:37;;;;;;;3.11;2.30;;;;;;;19.33;40.36;100488.91;;;;-61
2020/05/15 07:01:37;;;;;;;2.48;2.20;;;;;;;19.35;40.65;100501.06;;;;-60
2020/05/15 07:04:38;;;;;;;2.33;2.11;;;;;;;19.36;40.68;100502.75;;;;-61
2020/05/15 07:07:38;;;;;;;2.73;1.91;;;;;;;19.35;40.43;100507.20;;;;-56
2020/05/15 07:10:39;;;;;;;2.23;2.00;;;;;;;19.37;40.51;100505.34;;;;-57
2020/05/15 07:13:39;;;;;;;2.15;1.95;;;;;;;19.38;40.43;100509.30;;;;-57
2020/05/15 07:16:55;;;;;;;2.20;2.00;;;;;;;19.38;40.56;100509.07;;;;-56
2020/05/15 07:20:11;;;;;;;2.34;2.13;;;;;;;19.42;40.69;100508.09;;;;-57
2020/05/15 07:22:42;;;;;;;3.19;1.98;;;;;;;19.43;40.71;100511.58;;;;-61
2020/05/15 07:26:04;;;;;;;2.30;1.97;;;;;;;19.45;40.75;100517.83;;;;-51
2020/05/15 07:28:47;;;;;;;3.55;1.89;;;;;;;19.48;41.00;100519.24;;;;-56
2020/05/15 07:31:38;;;;;;;2.53;1.76;;;;;;;19.50;41.09;100519.06;;;;-53
2020/05/15 07:34:37;;;;;;;3.51;1.78;;;;;;;19.51;41.14;100517.27;;;;-58
2020/05/15 07:37:37;;;;;;;2.37;1.80;;;;;;;19.53;41.15;100520.44;;;;-57
2020/05/15 07:40:56;;;;;;;3.23;1.97;;;;;;;19.55;41.33;100516.84;;;;-57
2020/05/15 07:43:37;;;;;;;2.64;1.80;;;;;;;19.57;41.18;100517.94;;;;-52
2020/05/15 07:46:37;;;;;;;1.84;1.73;;;;;;;19.58;41.02;100517.98;;;;-51
2020/05/15 07:49:47;;;;;;;2.62;1.90;;;;;;;19.62;41.52;100524.19;;;;-51
2020/05/15 07:52:37;;;;;;;5.66;2.00;;;;;;;19.61;40.99;100525.49;;;;-54
2020/05/15 07:55:37;;;;;;;2.06;1.82;;;;;;;19.61;40.96;100533.80;;;;-51
2020/05/15 07:58:37;;;;;;;2.59;1.93;;;;;;;19.61;40.76;100532.80;;;;-57
2020/05/15 08:01:37;;;;;;;4.39;1.91;;;;;;;19.62;40.85;100533.52;;;;-58
2020/05/15 08:04:37;;;;;;;2.75;1.84;;;;;;;19.62;40.70;100536.66;;;;-56
2020/05/15 08:07:37;;;;;;;2.62;1.80;;;;;;;19.62;40.72;100542.69;;;;-57
2020/05/15 08:10:37;;;;;;;3.19;2.05;;;;;;;19.63;41.17;100536.23;;;;-56
2020/05/15 08:13:37;;;;;;;2.89;1.84;;;;;;;19.64;41.31;100528.97;;;;-51
2020/05/15 08:16:37;;;;;;;3.42;1.89;;;;;;;19.64;41.06;100536.24;;;;-58
2020/05/15 08:19:39;;;;;;;3.09;1.83;;;;;;;19.64;41.18;100537.52;;;;-56
2020/05/15 08:22:37;;;;;;;3.19;1.73;;;;;;;19.63;41.18;100537.31;;;;-57
2020/05/15 08:25:37;;;;;;;6.38;2.15;;;;;;;19.63;41.12;100542.50;;;;-56
2020/05/15 08:28:37;;;;;;;5.49;1.90;;;;;;;19.63;41.13;100553.89;;;;-54
2020/05/15 08:31:39;;;;;;;3.08;1.93;;;;;;;19.63;41.07;100555.50;;;;-55
2020/05/15 08:34:37;;;;;;;2.30;1.91;;;;;;;19.63;40.98;100552.66;;;;-51
2020/05/15 08:37:37;;;;;;;4.29;1.93;;;;;;;19.64;41.08;100557.12;;;;-53
2020/05/15 08:40:37;;;;;;;2.58;1.65;;;;;;;19.63;41.14;100557.19;;;;-51
2020/05/15 08:43:37;;;;;;;3.23;1.78;;;;;;;19.63;41.41;100561.27;;;;-56
2020/05/15 08:46:37;;;;;;;2.27;1.80;;;;;;;19.63;41.39;100561.09;;;;-56
2020/05/15 08:49:37;;;;;;;2.77;1.70;;;;;;;19.63;41.40;100566.45;;;;-55
2020/05/15 08:52:37;;;;;;;3.79;1.70;;;;;;;19.64;41.42;100573.71;;;;-57
2020/05/15 08:55:37;;;;;;;2.36;1.72;;;;;;;19.64;41.42;100573.88;;;;-52
2020/05/15 08:58:37;;;;;;;2.63;1.78;;;;;;;19.65;41.84;100574.92;;;;-50
2020/05/15 09:01:37;;;;;;;4.16;1.91;;;;;;;19.65;41.47;100579.95;;;;-58
2020/05/15 09:04:37;;;;;;;4.05;1.75;;;;;;;19.64;41.41;100580.58;;;;-59
2020/05/15 09:07:37;;;;;;;1.81;1.69;;;;;;;19.63;41.30;100584.39;;;;-51
2020/05/15 09:10:37;;;;;;;2.06;1.80;;;;;;;19.62;41.34;100580.89;;;;-52
2020/05/15 09:13:37;;;;;;;2.09;1.69;;;;;;;19.61;41.28;100588.42;;;;-53
2020/05/15 09:16:37;;;;;;;2.90;1.80;;;;;;;19.60;41.27;100588.33;;;;-52
2020/05/15 09:19:37;;;;;;;5.82;1.73;;;;;;;19.59;41.31;100589.50;;;;-52
2020/05/15 09:22:37;;;;;;;2.19;1.70;;;;;;;19.58;41.23;100599.17;;;;-48
2020/05/15 09:25:37;;;;;;;1.81;1.70;;;;;;;19.58;41.21;100599.90;;;;-48
2020/05/15 09:28:37;;;;;;;2.20;1.79;;;;;;;19.56;41.16;100604.44;;;;-47
2020/05/15 09:36:52;;;;;;;2.13;1.58;;;;;;;19.53;41.19;100612.01;;;;-48
2020/05/15 09:39:37;;;;;;;1.93;1.61;;;;;;;19.53;41.16;100612.84;;;;-48
2020/05/15 09:42:37;;;;;;;2.96;1.77;;;;;;;19.51;41.19;100616.87;;;;-48
2020/05/15 09:45:37;;;;;;;1.71;1.60;;;;;;;19.51;41.16;100618.00;;;;-49
2020/05/15 09:48:37;;;;;;;1.72;1.60;;;;;;;19.50;41.17;100621.74;;;;-48
2020/05/15 09:51:37;;;;;;;1.81;1.60;;;;;;;19.49;41.16;100625.72;;;;-48
2020/05/15 09:54:39;;;;;;;1.90;1.67;;;;;;;19.48;41.18;100628.02;;;;-48
2020/05/15 09:57:49;;;;;;;1.77;1.67;;;;;;;19.47;41.16;100627.63;;;;-48
2020/05/15 10:04:37;;;;;;;1.69;1.59;;;;;;;19.45;41.15;100632.56;;;;-48
2020/05/15 10:07:37;;;;;;;1.87;1.69;;;;;;;19.43;41.17;100630.16;;;;-47
2020/05/15 10:10:37;;;;;;;2.77;1.86;;;;;;;19.42;41.19;100635.70;;;;-59
2020/05/15 10:13:37;;;;;;;1.97;1.71;;;;;;;19.41;41.17;100638.11;;;;-58
2020/05/15 10:16:37;;;;;;;6.65;2.01;;;;;;;19.43;41.44;100637.26;;;;-53
2020/05/15 10:19:37;;;;;;;3.16;1.77;;;;;;;19.43;41.46;100639.44;;;;-53
2020/05/15 10:22:37;;;;;;;3.21;1.69;;;;;;;19.43;41.57;100641.34;;;;-53
2020/05/15 10:25:37;;;;;;;3.19;1.70;;;;;;;19.43;41.58;100645.59;;;;-54
2020/05/15 10:28:37;;;;;;;2.71;1.89;;;;;;;19.44;41.62;100644.52;;;;-57
2020/05/15 10:31:37;;;;;;;3.90;1.91;;;;;;;19.44;41.79;100648.87;;;;-57
2020/05/15 10:34:37;;;;;;;3.25;1.71;;;;;;;19.45;41.80;100644.39;;;;-52
2020/05/15 10:37:37;;;;;;;4.70;2.07;;;;;;;19.47;41.80;100651.58;;;;-53
2020/05/15 10:40:46;;;;;;;3.18;1.63;;;;;;;19.46;41.86;100650.54;;;;-53
2020/05/15 10:43:38;;;;;;;3.53;1.75;;;;;;;19.47;41.91;100652.82;;;;-54
2020/05/15 10:46:37;;;;;;;5.63;1.83;;;;;;;19.46;41.95;100651.94;;;;-52
2020/05/15 10:49:37;;;;;;;4.35;1.97;;;;;;;19.46;41.88;100665.11;;;;-61
2020/05/15 10:52:37;;;;;;;4.03;1.78;;;;;;;19.45;41.80;100669.08;;;;-61
2020/05/15 10:55:37;;;;;;;2.99;1.65;;;;;;;19.44;41.77;100667.19;;;;-56
2020/05/15 10:58:37;;;;;;;2.61;1.60;;;;;;;19.43;41.74;100666.70;;;;-57
2020/05/15 11:01:37;;;;;;;3.27;1.80;;;;;;;19.41;41.72;100669.27;;;;-57
2020/05/15 11:04:37;;;;;;;4.53;1.79;;;;;;;19.40;41.67;100670.84;;;;-56
2020/05/15 11:07:37;;;;;;;2.66;1.80;;;;;;;19.39;41.63;100675.88;;;;-57
2020/05/15 11:10:38;;;;;;;1.89;1.70;;;;;;;19.38;41.66;100677.17;;;;-56
2020/05/15 11:13:37;;;;;;;2.15;1.69;;;;;;;19.36;41.61;100678.13;;;;-57
2020/05/15 11:16:40;;;;;;;2.99;1.89;;;;;;;19.35;41.60;100675.30;;;;-61
2020/05/15 11:19:37;;;;;;;2.40;1.85;;;;;;;19.34;41.58;100672.67;;;;-61
2020/05/15 11:22:37;;;;;;;2.08;1.79;;;;;;;19.34;41.58;100671.99;;;;-61
2020/05/15 11:25:37;;;;;;;2.08;1.71;;;;;;;19.31;41.56;100673.30;;;;-60
2020/05/15 11:28:37;;;;;;;2.92;1.73;;;;;;;19.31;41.56;100676.55;;;;-61
2020/05/15 11:31:37;;;;;;;2.43;1.85;;;;;;;19.31;41.55;100675.77;;;;-60
2020/05/15 11:34:37;;;;;;;3.29;1.83;;;;;;;19.30;41.47;100677.23;;;;-60
2020/05/15 11:37:37;;;;;;;2.77;1.75;;;;;;;19.29;41.47;100681.63;;;;-61
2020/05/15 11:40:37;;;;;;;2.01;1.71;;;;;;;19.28;41.48;100685.44;;;;-60
2020/05/15 11:43:37;;;;;;;2.11;1.73;;;;;;;19.27;41.50;100687.50;;;;-60
2020/05/15 11:46:37;;;;;;;4.03;1.75;;;;;;;19.27;41.44;100688.90;;;;-61
2020/05/15 11:49:42;;;;;;;2.11;1.69;;;;;;;19.25;41.42;100692.83;;;;-61
2020/05/15 11:52:37;;;;;;;1.94;1.72;;;;;;;19.25;41.42;100691.77;;;;-62
2020/05/15 11:55:37;;;;;;;2.03;1.77;;;;;;;19.25;41.43;100693.94;;;;-60
2020/05/15 11:58:37;;;;;;;1.89;1.79;;;;;;;19.24;41.37;100700.47;;;;-60
2020/05/15 12:01:42;;;;;;;1.97;1.76;;;;;;;19.24;41.37;100699.48;;;;-61
2020/05/15 12:04:37;;;;;;;2.18;1.80;;;;;;;19.23;41.35;100699.69;;;;-61
2020/05/15 12:07:37;;;;;;;1.79;1.69;;;;;;;19.22;41.35;100702.66;;;;-60
2020/05/15 12:10:37;;;;;;;2.01;1.80;;;;;;;19.22;41.45;100705.67;;;;-55
2020/05/15 12:13:37;;;;;;;3.59;1.87;;;;;;;19.24;41.55;100710.19;;;;-54
2020/05/15 12:16:50;;;;;;;3.73;1.88;;;;;;;19.24;41.62;100714.66;;;;-57
2020/05/15 12:20:03;;;;;;;3.23;1.78;;;;;;;19.25;41.47;100723.97;;;;-52
2020/05/15 12:22:51;;;;;;;2.47;1.94;;;;;;;19.26;41.56;100721.00;;;;-50
2020/05/15 12:25:52;;;;;;;3.68;2.10;;;;;;;19.26;41.61;100722.95;;;;-51
2020/05/15 12:28:38;;;;;;;2.53;1.70;;;;;;;19.26;41.67;100723.52;;;;-54
2020/05/15 12:31:37;;;;;;;4.71;1.89;;;;;;;19.26;41.81;100723.29;;;;-52
2020/05/15 12:34:37;;;;;;;3.63;1.97;;;;;;;19.27;41.80;100720.22;;;;-52
2020/05/15 12:37:37;;;;;;;3.61;1.84;;;;;;;19.28;41.79;100725.80;;;;-53
2020/05/15 12:40:37;;;;;;;3.60;1.90;;;;;;;19.28;41.81;100730.66;;;;-52
2020/05/15 12:43:37;;;;;;;3.21;1.87;;;;;;;19.28;41.79;100734.44;;;;-54
2020/05/15 12:46:39;;;;;;;3.11;2.00;;;;;;;19.28;41.77;100734.44;;;;-56
2020/05/15 12:49:37;;;;;;;5.57;1.95;;;;;;;19.29;41.81;100733.22;;;;-56
2020/05/15 12:52:37;;;;;;;1.94;1.78;;;;;;;19.30;41.84;100738.85;;;;-52
2020/05/15 12:55:37;;;;;;;3.03;1.97;;;;;;;19.29;41.82;100734.61;;;;-53
2020/05/15 12:58:37;;;;;;;4.26;2.13;;;;;;;19.30;41.80;100738.95;;;;-51
2020/05/15 13:01:37;;;;;;;2.11;1.91;;;;;;;19.30;41.79;100740.91;;;;-53
2020/05/15 13:04:37;;;;;;;3.33;2.19;;;;;;;19.30;41.75;100740.45;;;;-57
2020/05/15 13:07:37;;;;;;;2.13;1.92;;;;;;;19.29;41.75;100742.09;;;;-57
2020/05/15 13:10:38;;;;;;;2.35;1.99;;;;;;;19.28;41.73;100738.18;;;;-58
2020/05/15 13:13:38;;;;;;;2.85;1.91;;;;;;;19.27;41.67;100737.41;;;;-57
2020/05/15 13:16:37;;;;;;;2.57;1.95;;;;;;;19.26;41.63;100735.24;;;;-58
2020/05/15 13:19:37;;;;;;;2.69;2.04;;;;;;;19.26;41.63;100735.57;;;;-57
2020/05/15 13:22:48;;;;;;;2.67;1.89;;;;;;;19.24;41.61;100731.73;;;;-58
2020/05/15 13:25:37;;;;;;;2.18;1.98;;;;;;;19.24;41.62;100738.75;;;;-56
2020/05/15 13:28:37;;;;;;;2.23;1.80;;;;;;;19.22;41.62;100737.66;;;;-56
2020/05/15 13:31:37;;;;;;;2.39;1.83;;;;;;;19.22;41.60;100740.23;;;;-56
2020/05/15 13:34:37;;;;;;;2.01;1.81;;;;;;;19.22;41.63;100748.77;;;;-56
2020/05/15 13:37:37;;;;;;;2.45;1.83;;;;;;;19.20;41.53;100742.74;;;;-56
2020/05/15 13:40:42;;;;;;;3.48;2.00;;;;;;;19.20;41.51;100742.48;;;;-56
2020/05/15 13:43:37;;;;;;;2.16;1.90;;;;;;;19.19;41.51;100746.72;;;;-56
2020/05/15 13:46:37;;;;;;;3.16;2.11;;;;;;;19.19;41.45;100740.69;;;;-56
2020/05/15 13:49:37;;;;;;;2.14;1.94;;;;;;;19.18;41.46;100732.83;;;;-56
2020/05/15 13:52:37;;;;;;;2.26;1.82;;;;;;;19.17;41.45;100733.72;;;;-55
2020/05/15 13:55:37;;;;;;;2.73;1.90;;;;;;;19.17;41.38;100746.00;;;;-56
2020/05/15 13:58:37;;;;;;;2.67;1.73;;;;;;;19.16;41.36;100747.00;;;;-56
2020/05/15 14:01:37;;;;;;;2.13;1.94;;;;;;;19.15;41.42;100750.02;;;;-56
2020/05/15 14:04:37;;;;;;;2.45;1.95;;;;;;;19.15;41.44;100751.97;;;;-56
2020/05/15 14:07:37;;;;;;;2.29;1.81;;;;;;;19.14;41.41;100746.19;;;;-56
2020/05/15 14:10:48;;;;;;;1.90;1.80;;;;;;;19.14;41.37;100746.73;;;;-55
2020/05/15 14:13:37;;;;;;;5.43;2.04;;;;;;;19.15;41.54;100745.46;;;;-58
2020/05/15 14:16:37;;;;;;;2.50;1.99;;;;;;;19.14;41.67;100746.86;;;;-53
2020/05/15 14:19:37;;;;;;;3.93;1.95;;;;;;;19.16;41.88;100749.23;;;;-55
2020/05/15 14:22:37;;;;;;;4.65;1.84;;;;;;;19.16;41.78;100748.91;;;;-59
2020/05/15 14:25:37;;;;;;;2.72;1.92;;;;;;;19.17;41.89;100746.94;;;;-51
2020/05/15 14:28:37;;;;;;;2.31;1.94;;;;;;;19.18;42.01;100749.41;;;;-55
2020/05/15 14:31:37;;;;;;;2.41;1.92;;;;;;;19.19;42.09;100750.22;;;;-57
2020/05/15 14:34:37;;;;;;;3.31;2.16;;;;;;;19.18;42.15;100751.79;;;;-50
2020/05/15 14:37:37;;;;;;;2.52;1.91;;;;;;;19.19;42.06;100748.56;;;;-53
2020/05/15 14:40:39;;;;;;;3.44;2.01;;;;;;;19.19;42.14;100751.33;;;;-56
2020/05/15 14:43:37;;;;;;;2.64;1.99;;;;;;;19.19;42.19;100757.09;;;;-56
2020/05/15 14:46:37;;;;;;;3.49;2.07;;;;;;;19.20;42.21;100753.62;;;;-55
2020/05/15 14:49:37;;;;;;;2.08;1.90;;;;;;;19.20;42.17;100756.47;;;;-57
2020/05/15 14:52:37;;;;;;;2.29;2.00;;;;;;;19.21;42.07;100758.42;;;;-59
2020/05/15 14:55:37;;;;;;;2.35;1.80;;;;;;;19.21;42.15;100760.03;;;;-51
2020/05/15 14:58:37;;;;;;;2.37;1.94;;;;;;;19.21;42.20;100764.06;;;;-44
2020/05/15 15:01:37;;;;;;;2.23;2.02;;;;;;;19.22;42.24;100764.17;;;;-50
2020/05/15 15:04:37;;;;;;;2.31;2.11;;;;;;;19.21;42.25;100770.59;;;;-52
2020/05/15 15:07:37;;;;;;;3.00;2.01;;;;;;;19.22;42.39;100771.48;;;;-51
2020/05/15 15:10:37;;;;;;;3.14;2.11;;;;;;;19.22;42.30;100771.81;;;;-48
2020/05/15 15:13:37;;;;;;;2.24;2.02;;;;;;;19.22;42.24;100768.03;;;;-58
2020/05/15 15:16:37;;;;;;;2.29;1.97;;;;;;;19.23;42.28;100772.77;;;;-54
2020/05/15 15:19:37;;;;;;;2.99;1.84;;;;;;;19.23;42.18;100768.41;;;;-53
2020/05/15 15:22:37;;;;;;;3.31;1.99;;;;;;;19.22;42.30;100766.52;;;;-52
2020/05/15 15:25:37;;;;;;;3.71;2.01;;;;;;;19.23;42.15;100771.87;;;;-57
2020/05/15 15:28:37;;;;;;;4.03;1.91;;;;;;;19.24;42.14;100767.80;;;;-57
2020/05/15 15:31:37;;;;;;;2.81;1.95;;;;;;;19.24;42.11;100772.81;;;;-55
2020/05/15 15:34:37;;;;;;;2.17;1.91;;;;;;;19.24;42.12;100779.00;;;;-58
2020/05/15 15:37:37;;;;;;;3.43;1.99;;;;;;;19.24;42.21;100779.84;;;;-52
2020/05/15 15:40:37;;;;;;;4.08;2.23;;;;;;;19.24;42.28;100784.20;;;;-58
2020/05/15 15:43:37;;;;;;;4.92;1.99;;;;;;;19.24;42.23;100778.44;;;;-55
2020/05/15 15:46:37;;;;;;;1.99;1.86;;;;;;;19.24;42.25;100775.66;;;;-52
2020/05/15 15:53:44;;;;;;;2.27;2.03;;;;;;;19.25;42.20;100785.75;;;;-52
2020/05/15 15:56:39;;;;;;;3.16;1.93;;;;;;;19.24;42.19;100785.80;;;;-55
2020/05/15 15:59:37;;;;;;;2.95;1.82;;;;;;;19.23;42.18;100786.94;;;;-55
2020/05/15 16:02:37;;;;;;;3.05;1.90;;;;;;;19.23;42.17;100793.45;;;;-55
2020/05/15 16:05:37;;;;;;;4.71;1.81;;;;;;;19.21;42.13;100799.96;;;;-55
2020/05/15 16:08:37;;;;;;;2.73;1.90;;;;;;;19.20;42.05;100799.51;;;;-57
2020/05/15 16:11:37;;;;;;;2.19;1.93;;;;;;;19.20;42.06;100803.25;;;;-57
2020/05/15 16:14:37;;;;;;;2.68;1.91;;;;;;;19.18;42.08;100800.58;;;;-57
2020/05/15 16:17:37;;;;;;;2.35;2.11;;;;;;;19.19;41.99;100800.02;;;;-56
2020/05/15 16:20:37;;;;;;;1.84;1.74;;;;;;;19.17;41.98;100803.14;;;;-57
2020/05/15 16:23:37;;;;;;;2.39;1.92;;;;;;;19.16;41.97;100806.44;;;;-57
2020/05/15 16:26:37;;;;;;;2.17;1.83;;;;;;;19.16;41.94;100806.79;;;;-57
2020/05/15 16:29:37;;;;;;;2.05;1.82;;;;;;;19.15;41.96;100805.00;;;;-57
2020/05/15 16:32:37;;;;;;;2.45;1.97;;;;;;;19.14;41.94;100805.39;;;;-57
2020/05/15 16:35:37;;;;;;;3.09;1.90;;;;;;;19.14;41.88;100808.41;;;;-57
2020/05/15 16:38:37;;;;;;;2.11;1.90;;;;;;;19.13;41.92;100810.13;;;;-57
2020/05/15 16:41:37;;;;;;;2.12;1.92;;;;;;;19.13;41.84;100814.80;;;;-57
2020/05/15 16:44:37;;;;;;;1.90;1.79;;;;;;;19.11;41.82;100813.17;;;;-57
2020/05/15 16:47:37;;;;;;;2.00;1.85;;;;;;;19.12;41.79;100817.70;;;;-57
2020/05/15 16:50:37;;;;;;;2.01;1.70;;;;;;;19.11;41.84;100813.34;;;;-54
2020/05/15 16:53:37;;;;;;;1.97;1.78;;;;;;;19.11;41.89;100816.58;;;;-54
2020/05/15 16:56:37;;;;;;;2.05;1.85;;;;;;;19.11;41.83;100818.16;;;;-55
2020/05/15 16:59:37;;;;;;;2.01;1.91;;;;;;;19.10;41.75;100818.38;;;;-55
2020/05/15 17:02:37;;;;;;;2.00;1.77;;;;;;;19.10;41.83;100822.05;;;;-55
2020/05/15 17:05:37;;;;;;;1.93;1.70;;;;;;;19.09;41.80;100824.25;;;;-55
2020/05/15 17:08:37;;;;;;;1.83;1.73;;;;;;;19.08;41.85;100823.69;;;;-55
2020/05/15 17:11:37;;;;;;;1.93;1.81;;;;;;;19.08;41.72;100825.14;;;;-55
2020/05/15 17:14:37;;;;;;;2.05;1.92;;;;;;;19.07;41.74;100824.08;;;;-55
2020/05/15 17:17:37;;;;;;;1.76;1.66;;;;;;;19.08;41.76;100827.30;;;;-55
2020/05/15 17:20:37;;;;;;;4.02;1.82;;;;;;;19.06;41.73;100830.16;;;;-54